Time;durP1;ratioP1;P1;durP2;ratioP2;P2;SDS_P1;SDS_P2;PMS_P1;PMS_P2;Temp;Humidity;BMP_temperature;BMP_pressure;BME280_temperature;BME280_humidity;BME280_pressure;Samples;Min_cycle;Max_cycle;Signal;HPM_P1;HPM_P2
2022/03/27 00:01:09;;;;;;;;;;;;;;;13.29;59.94;100643.81;4422695;32;20354;-89
2022/03/27 00:03:35;;;;;;;;;;;;;;;13.33;59.95;100647.19;4421249;32;20341;-89
2022/03/27 00:06:00;;;;;;;;;;;;;;;13.28;59.94;100636.87;4408665;32;20376;-89
2022/03/27 00:08:26;;;;;;;;;;;;;;;13.31;59.95;100639.41;4421593;32;19969;-89
2022/03/27 00:13:35;;;;;;;;;;;;;;;13.23;59.94;100643.13;4421749;32;20035;-88
2022/03/27 00:16:00;;;;;;;;;;;;;;;13.22;59.94;100639.66;4421074;32;20005;-88
2022/03/27 00:18:26;;;;;;;;;;;;;;;13.35;59.95;100645.38;4421379;32;19992;-88
2022/03/27 00:20:51;;;;;;;;;;;;;;;13.46;59.95;100644.16;4421232;32;20020;-88
2022/03/27 00:23:16;;;;;;;;;;;;;;;13.41;59.95;100639.97;4421226;32;20371;-88
2022/03/27 00:25:43;;;;;;;;;;;;;;;13.43;59.95;100644.25;4420875;32;19982;-88
2022/03/27 00:28:08;;;;;;;;;;;;;;;13.57;59.96;100637.78;4421256;32;20338;-87
2022/03/27 00:30:34;;;;;;;;;;;;;;;13.60;59.96;100635.06;4422386;32;20017;-87
2022/03/27 00:32:59;;;;;;;;;;;;;;;13.52;59.96;100648.38;4422645;32;20266;-88
2022/03/27 00:35:24;;;;;;;;;;;;;;;13.17;59.94;100647.63;4421227;32;20370;-89
2022/03/27 00:37:52;;;;;;;;;;;;;;;13.29;59.95;100646.44;4422581;32;19986;-89
2022/03/27 00:40:17;;;;;;;;;;;;;;;13.26;59.95;100643.06;4421296;32;19998;-89
2022/03/27 00:42:42;;;;;;;;;;;;;;;13.30;59.94;100653.38;4421140;32;20300;-89
2022/03/27 00:45:08;;;;;;;;;;;;;;;13.29;59.94;100645.56;4422293;32;19978;-89
2022/03/27 00:47:33;;;;;;;;;;;;;;;13.07;59.93;100656.59;4421235;32;19974;-86
2022/03/27 00:49:58;;;;;;;;;;;;;;;13.17;59.94;100660.69;4421224;32;20005;-87
2022/03/27 00:52:24;;;;;;;;;;;;;;;12.81;59.92;100659.94;4422447;32;19974;-87
2022/03/27 00:54:49;;;;;;;;;;;;;;;13.10;59.92;100659.12;4407803;32;26729;-87
2022/03/27 00:57:14;;;;;;;;;;;;;;;13.10;59.94;100661.75;4409347;32;28826;-87
2022/03/27 00:59:39;;;;;;;;;;;;;;;13.02;59.92;100657.63;4405945;32;20283;-90
2022/03/27 01:02:04;;;;;;;;;;;;;;;12.77;59.91;100653.03;4393612;32;20024;-90
2022/03/27 01:04:30;;;;;;;;;;;;;;;12.81;59.92;100656.47;4393030;32;20393;-90
2022/03/27 01:06:55;;;;;;;;;;;;;;;12.91;59.92;100660.53;4406237;32;20687;-91
2022/03/27 01:09:36;;;;;;;;;;;;;;;13.07;59.94;100660.97;4406437;32;20008;-90
2022/03/27 01:12:05;;;;;;;;;;;;;;;13.08;59.93;100652.22;4393838;32;20004;-90
2022/03/27 01:14:31;;;;;;;;;;;;;;;13.02;59.92;100655.03;4393967;32;20041;-90
2022/03/27 01:16:59;;;;;;;;;;;;;;;12.83;59.92;100660.75;4393464;32;19998;-90
2022/03/27 01:19:26;;;;;;;;;;;;;;;12.82;59.92;100663.41;4393392;32;19990;-89
2022/03/27 01:21:51;;;;;;;;;;;;;;;12.88;59.92;100663.22;4381062;32;19994;-90
2022/03/27 01:24:18;;;;;;;;;;;;;;;12.66;59.91;100669.91;4393409;32;20024;-89
2022/03/27 01:26:43;;;;;;;;;;;;;;;12.82;59.92;100664.25;4393398;32;20084;-90
2022/03/27 01:29:08;;;;;;;;;;;;;;;12.48;59.90;100671.22;4393468;32;20011;-90
2022/03/27 01:31:34;;;;;;;;;;;;;;;12.71;59.90;100665.41;4393669;32;20004;-88
2022/03/27 01:33:59;;;;;;;;;;;;;;;12.48;59.90;100672.09;4407698;32;20809;-89
2022/03/27 01:36:26;;;;;;;;;;;;;;;12.59;59.91;100664.84;4407537;32;20000;-88
2022/03/27 01:38:52;;;;;;;;;;;;;;;12.47;59.89;100667.75;4393942;32;19997;-87
2022/03/27 01:41:17;;;;;;;;;;;;;;;12.54;59.90;100658.91;4393787;32;20307;-88
2022/03/27 01:43:43;;;;;;;;;;;;;;;12.53;59.90;100667.59;4393863;32;19982;-88
2022/03/27 01:46:08;;;;;;;;;;;;;;;12.46;59.89;100673.88;4405698;32;26197;-88
2022/03/27 01:48:33;;;;;;;;;;;;;;;12.56;59.90;100679.75;4393427;32;19985;-88
2022/03/27 01:50:59;;;;;;;;;;;;;;;12.43;59.90;100673.97;4393738;32;19986;-88
2022/03/27 01:53:24;;;;;;;;;;;;;;;12.23;59.88;100681.41;4393664;32;20400;-88
2022/03/27 01:55:50;;;;;;;;;;;;;;;12.35;59.89;100685.50;4407498;32;19986;-85
2022/03/27 01:58:15;;;;;;;;;;;;;;;12.29;59.89;100686.47;4407533;32;20308;-86
2022/03/27 02:00:42;;;;;;;;;;;;;;;12.26;59.88;100682.19;4406988;32;22032;-88
2022/03/27 02:03:07;;;;;;;;;;;;;;;12.36;59.90;100682.00;4393817;32;20002;-86
2022/03/27 02:05:32;;;;;;;;;;;;;;;12.36;59.89;100692.44;4393398;32;19986;-87
2022/03/27 02:07:58;;;;;;;;;;;;;;;12.17;59.88;100692.88;4407049;32;20001;-87
2022/03/27 02:10:23;;;;;;;;;;;;;;;12.20;59.88;100692.78;4393303;32;19982;-86
2022/03/27 02:12:48;;;;;;;;;;;;;;;12.29;59.89;100682.13;4393272;32;19993;-86
2022/03/27 02:15:13;;;;;;;;;;;;;;;12.26;59.88;100684.81;4379657;32;19974;-86
2022/03/27 02:17:39;;;;;;;;;;;;;;;12.21;59.88;100684.06;4393407;32;20423;-88
2022/03/27 02:20:05;;;;;;;;;;;;;;;12.22;59.88;100682.31;4407280;32;19982;-87
2022/03/27 02:22:31;;;;;;;;;;;;;;;12.18;59.88;100688.50;4407228;32;19978;-87
2022/03/27 02:24:56;;;;;;;;;;;;;;;12.23;59.89;100690.09;4393368;32;19992;-88
2022/03/27 02:27:21;;;;;;;;;;;;;;;12.11;59.87;100692.16;4407225;32;20374;-88
2022/03/27 02:29:46;;;;;;;;;;;;;;;12.11;59.87;100692.16;4393338;32;20291;-88
2022/03/27 02:32:12;;;;;;;;;;;;;;;12.04;59.87;100701.00;4392821;32;23378;-88
2022/03/27 02:34:37;;;;;;;;;;;;;;;12.13;59.88;100696.44;4407165;32;19997;-85
2022/03/27 02:37:02;;;;;;;;;;;;;;;12.39;59.89;100693.22;4393118;32;20005;-86
2022/03/27 02:39:28;;;;;;;;;;;;;;;12.26;59.88;100704.81;4407011;32;19998;-88
2022/03/27 02:41:53;;;;;;;;;;;;;;;12.44;59.90;100703.53;4392411;32;25108;-88
2022/03/27 02:44:19;;;;;;;;;;;;;;;12.19;59.87;100701.50;4392989;32;20012;-87
2022/03/27 02:46:45;;;;;;;;;;;;;;;12.26;59.88;100710.91;4393001;32;20018;-89
2022/03/27 02:49:10;;;;;;;;;;;;;;;12.16;59.88;100711.19;4393268;32;19990;-89
2022/03/27 02:51:36;;;;;;;;;;;;;;;12.26;59.88;100715.28;4392802;32;19970;-87
2022/03/27 02:54:02;;;;;;;;;;;;;;;12.21;59.88;100717.12;4380265;32;19997;-87
2022/03/27 02:56:27;;;;;;;;;;;;;;;12.23;59.89;100717.97;4406713;32;19987;-87
2022/03/27 02:58:52;;;;;;;;;;;;;;;12.43;59.90;100720.09;4406618;32;19997;-86
2022/03/27 03:01:17;;;;;;;;;;;;;;;12.47;59.89;100711.28;4406162;32;24576;-86
2022/03/27 03:03:43;;;;;;;;;;;;;;;12.39;59.89;100710.63;4380203;32;19987;-86
2022/03/27 03:06:08;;;;;;;;;;;;;;;12.35;59.89;100704.63;4392664;32;20313;-87
2022/03/27 03:08:34;;;;;;;;;;;;;;;12.32;59.88;100701.25;4392772;32;19978;-87
2022/03/27 03:10:59;;;;;;;;;;;;;;;12.50;59.89;100708.59;4392546;32;20328;-86
2022/03/27 03:13:24;;;;;;;;;;;;;;;12.49;59.89;100696.44;4392693;32;19994;-84
2022/03/27 03:15:50;;;;;;;;;;;;;;;12.56;59.90;100718.94;4392671;32;19987;-84
2022/03/27 03:18:15;;;;;;;;;;;;;;;12.65;59.91;100721.28;4406649;32;20356;-84
2022/03/27 03:20:40;;;;;;;;;;;;;;;12.55;59.90;100723.28;4392628;32;20049;-85
2022/03/27 03:23:05;;;;;;;;;;;;;;;12.45;59.90;100729.63;4392449;32;19993;-84
2022/03/27 03:25:31;;;;;;;;;;;;;;;12.57;59.90;100739.78;4406319;32;19990;-84
2022/03/27 03:27:56;;;;;;;;;;;;;;;12.27;59.89;100741.34;4406794;32;19994;-84
2022/03/27 03:30:22;;;;;;;;;;;;;;;12.49;59.89;100740.84;4394859;32;19978;-83
2022/03/27 03:32:48;;;;;;;;;;;;;;;12.44;59.90;100740.09;4394882;32;19986;-84
2022/03/27 03:35:13;;;;;;;;;;;;;;;12.42;59.90;100747.97;4394726;32;20047;-85
2022/03/27 03:37:39;;;;;;;;;;;;;;;12.40;59.89;100748.91;4394608;32;20032;-84
2022/03/27 03:40:07;;;;;;;;;;;;;;;12.34;59.88;100746.44;4394740;32;19993;-84
2022/03/27 03:42:32;;;;;;;;;;;;;;;12.41;59.89;100756.69;4408514;32;20022;-85
2022/03/27 03:44:58;;;;;;;;;;;;;;;12.41;59.89;100750.62;4408495;32;20296;-85
2022/03/27 03:47:23;;;;;;;;;;;;;;;12.30;59.89;100750.84;4394612;32;19986;-85
2022/03/27 03:49:48;;;;;;;;;;;;;;;12.29;59.89;100755.22;4408432;32;19970;-84
2022/03/27 03:52:13;;;;;;;;;;;;;;;12.26;59.88;100764.88;4394550;32;20359;-85
2022/03/27 03:54:39;;;;;;;;;;;;;;;12.35;59.89;100759.47;4408487;32;20017;-84
2022/03/27 03:57:04;;;;;;;;;;;;;;;12.28;59.89;100770.91;4408458;32;20327;-84
2022/03/27 03:59:33;;;;;;;;;;;;;;;12.05;59.88;100775.78;4408445;32;19978;-85
2022/03/27 04:01:58;;;;;;;;;;;;;;;12.05;59.88;100770.56;4408505;32;20322;-89
2022/03/27 04:04:23;;;;;;;;;;;;;;;12.08;59.87;100783.56;4395134;32;19982;-89
2022/03/27 04:06:48;;;;;;;;;;;;;;;12.07;59.87;100777.50;4395283;32;20010;-90
2022/03/27 04:09:14;;;;;;;;;;;;;;;11.92;59.87;100780.41;4395688;32;20013;-93
2022/03/27 04:11:39;;;;;;;;;;;;;;;11.94;59.86;100779.50;4395558;32;19974;-85
2022/03/27 04:14:04;;;;;;;;;;;;;;;12.05;59.87;100786.22;4394359;32;20017;-85
2022/03/27 04:16:30;;;;;;;;;;;;;;;11.82;59.86;100786.69;4394540;32;20275;-85
2022/03/27 04:18:55;;;;;;;;;;;;;;;11.85;59.86;100789.28;4408357;32;20014;-88
2022/03/27 04:21:20;;;;;;;;;;;;;;;11.76;59.85;100792.87;4394205;32;20033;-87
2022/03/27 04:23:46;;;;;;;;;;;;;;;11.69;59.85;100797.38;4394101;32;20639;-87
2022/03/27 04:26:12;;;;;;;;;;;;;;;11.76;59.85;100800.69;4393738;32;25390;-87
2022/03/27 04:28:37;;;;;;;;;;;;;;;11.71;59.85;100807.75;4408416;32;19978;-87
2022/03/27 04:31:02;;;;;;;;;;;;;;;11.61;59.85;100811.47;4394412;32;20245;-90
2022/03/27 04:33:27;;;;;;;;;;;;;;;11.67;59.85;100812.19;4394258;32;20052;-89
2022/03/27 04:35:53;;;;;;;;;;;;;;;11.64;59.84;100821.81;4408181;32;19986;-88
2022/03/27 04:38:18;;;;;;;;;;;;;;;11.63;59.85;100833.16;4407481;32;20270;-90
2022/03/27 04:40:43;;;;;;;;;;;;;;;11.51;59.83;100841.19;4381293;32;20024;-88
2022/03/27 04:43:08;;;;;;;;;;;;;;;11.44;59.83;100847.41;4394029;32;20040;-88
2022/03/27 04:45:34;;;;;;;;;;;;;;;11.49;59.84;100853.38;4393929;32;20034;-87
2022/03/27 04:47:59;;;;;;;;;;;;;;;11.61;59.85;100859.25;4407720;32;19982;-89
2022/03/27 04:50:24;;;;;;;;;;;;;;;11.77;59.85;100867.63;4394024;32;19983;-89
2022/03/27 04:52:50;;;;;;;;;;;;;;;11.61;59.84;100861.00;4393895;32;20032;-84
2022/03/27 04:55:15;;;;;;;;;;;;;;;11.67;59.85;100866.09;4406380;32;24263;-85
2022/03/27 04:57:41;;;;;;;;;;;;;;;11.88;59.87;100868.34;4406799;32;19982;-85
2022/03/27 05:00:10;;;;;;;;;;;;;;;11.88;59.87;100868.34;4406824;32;20302;-84
2022/03/27 05:02:39;;;;;;;;;;;;;;;11.94;59.86;100869.97;4393979;32;20016;-84
2022/03/27 05:05:04;;;;;;;;;;;;;;;12.01;59.87;100873.28;4406620;32;19982;-84
2022/03/27 05:07:30;;;;;;;;;;;;;;;12.04;59.86;100881.06;4406776;32;20351;-84
2022/03/27 05:09:55;;;;;;;;;;;;;;;12.11;59.87;100883.53;4406780;32;20001;-84
2022/03/27 05:12:20;;;;;;;;;;;;;;;12.19;59.87;100878.16;4406471;32;20354;-84
2022/03/27 05:14:46;;;;;;;;;;;;;;;12.23;59.88;100877.19;4408067;32;19974;-84
2022/03/27 05:17:11;;;;;;;;;;;;;;;12.36;59.89;100880.41;4407478;32;20000;-85
2022/03/27 05:19:36;;;;;;;;;;;;;;;12.54;59.90;100882.62;4407731;32;20020;-85
2022/03/27 05:22:01;;;;;;;;;;;;;;;12.32;59.88;100895.28;4407548;32;20020;-84
2022/03/27 05:24:28;;;;;;;;;;;;;;;12.43;59.90;100890.69;4412371;32;19993;-84
2022/03/27 05:26:53;;;;;;;;;;;;;;;12.50;59.90;100894.87;4408380;32;20365;-84
2022/03/27 05:29:19;;;;;;;;;;;;;;;12.75;59.92;100894.34;4393926;32;19986;-84
2022/03/27 05:31:45;;;;;;;;;;;;;;;12.85;59.91;100893.25;4406413;32;20002;-84
2022/03/27 05:34:10;;;;;;;;;;;;;;;12.91;59.92;100890.47;4407742;32;20033;-85
2022/03/27 05:36:35;;;;;;;;;;;;;;;12.94;59.92;100900.88;4407490;32;20308;-85
2022/03/27 05:39:00;;;;;;;;;;;;;;;12.94;59.91;100905.22;4406342;32;20251;-86
2022/03/27 05:41:26;;;;;;;;;;;;;;;13.28;59.94;100906.19;4393747;32;20009;-85
2022/03/27 05:43:51;;;;;;;;;;;;;;;13.28;59.94;100921.03;4406331;32;20010;-86
2022/03/27 05:46:16;;;;;;;;;;;;;;;13.27;59.94;100920.16;4393561;32;19993;-85
2022/03/27 05:48:41;;;;;;;;;;;;;;;13.29;59.94;100918.37;4407599;32;20331;-85
2022/03/27 05:51:07;;;;;;;;;;;;;;;13.27;59.94;100914.06;4406009;32;19978;-85
2022/03/27 05:53:32;;;;;;;;;;;;;;;13.24;59.93;100927.19;4407088;32;22577;-85
2022/03/27 05:55:59;;;;;;;;;;;;;;;13.30;59.94;100935.78;4407215;32;20364;-85
2022/03/27 05:58:24;;;;;;;;;;;;;;;13.31;59.94;100936.62;4406322;32;19997;-85
2022/03/27 06:00:51;;;;;;;;;;;;;;;13.54;59.95;100931.69;4392765;32;31289;-86
2022/03/27 06:03:16;;;;;;;;;;;;;;;13.59;59.96;100936.81;4406192;32;20074;-88
2022/03/27 06:05:41;;;;;;;;;;;;;;;13.64;59.96;100935.78;4406052;32;20073;-89
2022/03/27 06:08:07;;;;;;;;;;;;;;;13.81;59.97;100953.66;4393469;32;20009;-87
2022/03/27 06:10:32;;;;;;;;;;;;;;;13.93;59.97;100949.84;4407212;32;20002;-88
2022/03/27 06:13:01;;;;;;;;;;;;;;;14.05;59.97;100952.16;4407402;32;20018;-88
2022/03/27 06:15:27;;;;;;;;;;;;;;;14.08;59.98;100958.16;4406013;32;19985;-89
2022/03/27 06:17:53;;;;;;;;;;;;;;;14.05;59.97;100957.41;4406162;32;19988;-87
2022/03/27 06:20:19;;;;;;;;;;;;;;;14.18;59.99;100957.91;4405931;32;20010;-87
2022/03/27 06:22:44;;;;;;;;;;;;;;;14.30;59.99;100971.53;4406537;32;19997;-91
2022/03/27 06:25:10;;;;;;;;;;;;;;;14.41;60.00;100966.84;4393917;32;20244;-91
2022/03/27 06:27:36;;;;;;;;;;;;;;;14.42;60.00;100965.94;4406551;32;19982;-90
2022/03/27 06:30:01;;;;;;;;;;;;;;;14.54;60.00;100977.00;4405892;32;20009;-88
2022/03/27 06:32:27;;;;;;;;;;;;;;;14.58;60.01;100978.63;4405334;32;19989;-90
2022/03/27 06:34:56;;;;;;;;;;;;;;;14.52;60.00;100973.59;4406087;32;20316;-92
2022/03/27 06:37:21;;;;;;;;;;;;;;;14.55;60.02;100973.50;4391355;32;19986;-90
2022/03/27 06:39:48;;;;;;;;;;;;;;;14.80;60.02;100966.63;4390422;32;20288;-87
2022/03/27 06:42:13;;;;;;;;;;;;;;;14.76;60.02;100980.72;4401826;32;20008;-89
2022/03/27 06:44:38;;;;;;;;;;;;;;;14.97;60.03;100985.34;4404488;32;20014;-88
2022/03/27 06:47:06;;;;;;;;;;;;;;;14.94;60.03;100984.56;4391801;32;19986;-88
2022/03/27 06:49:31;;;;;;;;;;;;;;;15.02;60.03;100986.03;4405022;32;20004;-88
2022/03/27 06:51:56;;;;;;;;;;;;;;;15.10;60.04;100983.19;4404838;32;19986;-88
2022/03/27 06:54:21;;;;;;;;;;;;;;;15.05;60.03;100979.84;4403999;32;25521;-88
2022/03/27 06:56:46;;;;;;;;;;;;;;;15.10;60.04;100988.41;4391892;32;20004;-90
2022/03/27 06:59:12;;;;;;;;;;;;;;;15.19;60.04;100979.44;4391768;32;20044;-87
2022/03/27 07:04:21;;;;;;;;;;;;;;;15.43;60.06;100988.28;4406757;32;19993;-87
2022/03/27 07:06:46;;;;;;;;;;;;;;;15.58;60.06;100983.41;4393849;32;20001;-88
2022/03/27 07:09:13;;;;;;;;;;;;;;;15.72;60.07;100982.97;4406089;32;21425;-87
2022/03/27 07:11:38;;;;;;;;;;;;;;;15.75;60.07;100992.50;4407895;32;20039;-88
2022/03/27 07:14:03;;;;;;;;;;;;;;;15.75;60.07;100993.34;4406636;32;20001;-87
2022/03/27 07:16:30;;;;;;;;;;;;;;;15.86;60.08;100990.38;4394080;32;20117;-88
2022/03/27 07:18:55;;;;;;;;;;;;;;;15.74;60.07;100989.00;4407178;32;20050;-87
2022/03/27 07:21:20;;;;;;;;;;;;;;;15.84;60.08;100989.56;4394570;32;20012;-87
2022/03/27 07:23:46;;;;;;;;;;;;;;;15.71;60.07;100991.75;4407548;32;20330;-88
2022/03/27 07:26:11;;;;;;;;;;;;;;;15.88;60.08;100988.56;4407156;32;20026;-88
2022/03/27 07:28:37;;;;;;;;;;;;;;;15.96;60.09;100989.16;4408572;32;20308;-87
2022/03/27 07:31:02;;;;;;;;;;;;;;;16.09;60.09;100989.56;4407105;32;20033;-89
2022/03/27 07:33:27;;;;;;;;;;;;;;;16.13;60.09;100999.94;4394538;32;20026;-88
2022/03/27 07:35:53;;;;;;;;;;;;;;;16.17;60.09;101000.69;4393892;32;27169;-88
2022/03/27 07:38:18;;;;;;;;;;;;;;;16.34;60.11;100994.84;4394284;32;20085;-88
2022/03/27 07:40:43;;;;;;;;;;;;;;;16.27;60.10;100996.81;4394684;32;19986;-88
2022/03/27 07:43:08;;;;;;;;;;;;;;;16.48;60.11;101003.06;4407079;32;20019;-88
2022/03/27 07:45:35;;;;;;;;;;;;;;;16.50;60.11;100988.94;4406767;32;20004;-88
2022/03/27 07:48:00;;;;;;;;;;;;;;;16.62;60.12;101002.56;4394238;32;20359;-88
2022/03/27 07:50:26;;;;;;;;;;;;;;;16.59;60.12;101003.53;4406980;32;19996;-88
2022/03/27 07:52:51;;;;;;;;;;;;;;;16.69;60.13;101009.34;4394294;32;19994;-88
2022/03/27 07:55:17;;;;;;;;;;;;;;;16.83;60.13;100999.16;4407530;32;19982;-89
2022/03/27 07:57:43;;;;;;;;;;;;;;;16.88;60.13;101005.97;4406522;32;20039;-88
2022/03/27 08:00:10;;;;;;;;;;;;;;;17.03;60.14;100998.38;4406999;32;20042;-88
2022/03/27 08:02:35;;;;;;;;;;;;;;;17.09;60.14;101001.66;4393812;32;20038;-88
2022/03/27 08:05:01;;;;;;;;;;;;;;;17.14;60.15;101002.31;4393963;32;19991;-88
2022/03/27 08:07:26;;;;;;;;;;;;;;;17.24;60.15;101008.06;4394288;32;19998;-88
2022/03/27 08:09:52;;;;;;;;;;;;;;;17.38;60.16;101003.13;4405338;32;20021;-88
2022/03/27 08:12:20;;;;;;;;;;;;;;;17.43;60.16;101001.16;4405615;32;20052;-88
2022/03/27 08:14:48;;;;;;;;;;;;;;;17.40;60.16;101006.56;4398287;32;19988;-87
2022/03/27 08:17:13;;;;;;;;;;;;;;;17.46;60.17;100998.41;4421142;32;19997;-86
2022/03/27 08:19:38;;;;;;;;;;;;;;;17.47;60.17;101000.13;4422405;32;19997;-87
2022/03/27 08:22:04;;;;;;;;;;;;;;;17.46;60.17;100993.13;4422394;32;19992;-89
2022/03/27 08:24:30;;;;;;;;;;;;;;;17.60;60.17;100989.09;4421065;32;19974;-92
2022/03/27 08:27:02;;;;;;;;;;;;;;;17.64;60.18;100986.25;4421052;32;20009;-92
2022/03/27 08:29:29;;;;;;;;;;;;;;;17.82;60.18;100987.31;4421583;32;20405;-90
2022/03/27 08:31:54;;;;;;;;;;;;;;;17.76;60.18;100983.16;4421154;32;19982;-90
2022/03/27 08:34:20;;;;;;;;;;;;;;;17.81;60.18;100987.38;4421180;32;19989;-90
2022/03/27 08:36:46;;;;;;;;;;;;;;;17.88;60.19;100991.47;4420737;32;20041;-89
2022/03/27 08:39:11;;;;;;;;;;;;;;;18.00;60.20;100986.53;4420954;32;19998;-89
2022/03/27 08:41:37;;;;;;;;;;;;;;;18.15;60.20;100989.41;4421036;32;19997;-89
2022/03/27 08:44:02;;;;;;;;;;;;;;;18.14;60.21;100987.69;4420904;32;19977;-88
2022/03/27 08:46:28;;;;;;;;;;;;;;;18.26;60.21;100981.91;4422240;32;19997;-88
2022/03/27 08:48:53;;;;;;;;;;;;;;;18.38;60.22;100982.19;4422518;32;20099;-91
2022/03/27 08:51:35;;;;;;;;;;;;;;;18.53;60.22;100993.00;4422434;32;19997;-88
2022/03/27 08:54:00;;;;;;;;;;;;;;;18.48;60.22;100987.94;4420719;32;19978;-90
2022/03/27 08:56:25;;;;;;;;;;;;;;;18.65;60.23;100995.09;4422214;32;19988;-90
2022/03/27 08:58:50;;;;;;;;;;;;;;;18.77;60.24;100989.28;4421947;32;19993;-90
2022/03/27 09:01:17;;;;;;;;;;;;;;;18.89;60.24;100987.84;4420790;32;20271;-89
2022/03/27 09:03:42;;;;;;;;;;;;;;;18.91;60.25;100994.75;4422282;32;19961;-90
2022/03/27 09:06:08;;;;;;;;;;;;;;;19.17;60.26;100993.53;4420816;32;20055;-90
2022/03/27 09:08:34;;;;;;;;;;;;;;;19.28;60.26;100993.03;4420903;32;20331;-91
2022/03/27 09:11:01;;;;;;;;;;;;;;;19.01;60.25;101000.47;4420729;32;19981;-90
2022/03/27 09:13:26;;;;;;;;;;;;;;;18.89;60.24;100995.75;4420936;32;19996;-90
2022/03/27 09:16:01;;;;;;;;;;;;;;;18.91;60.23;100997.38;4420889;32;20009;-90
2022/03/27 09:18:39;;;;;;;;;;;;;;;18.98;60.25;101001.47;4420786;32;20278;-89
2022/03/27 09:21:05;;;;;;;;;;;;;;;19.13;60.25;100997.22;4408068;32;19982;-89
2022/03/27 09:23:31;;;;;;;;;;;;;;;19.38;60.27;100996.06;4412376;32;20347;-90
2022/03/27 09:25:56;;;;;;;;;;;;;;;19.63;60.28;100993.94;4392484;32;20033;-89
2022/03/27 09:28:38;;;;;;;;;;;;;;;19.73;60.29;100994.38;4407062;32;19985;-91
2022/03/27 09:31:07;;;;;;;;;;;;;;;19.96;60.30;100994.06;4406001;32;19979;-90
2022/03/27 09:33:32;;;;;;;;;;;;;;;20.02;60.30;100993.72;4405769;32;20038;-89
2022/03/27 09:36:04;;;;;;;;;;;;;;;20.03;60.30;100984.88;4407187;32;20033;-88
2022/03/27 09:38:29;;;;;;;;;;;;;;;20.08;60.31;100992.56;4407750;32;19989;-92
2022/03/27 09:40:54;;;;;;;;;;;;;;;20.19;60.31;100977.88;4418264;32;20029;-91
2022/03/27 09:43:22;;;;;;;;;;;;;;;20.12;60.30;100989.69;4408722;32;20016;-89
2022/03/27 09:46:16;;;;;;;;;;;;;;;20.00;60.29;100994.75;4420818;32;20003;-89
2022/03/27 09:48:54;;;;;;;;;;;;;;;19.91;60.29;100985.50;4380981;32;19997;-91
2022/03/27 09:51:19;;;;;;;;;;;;;;;19.80;60.29;100988.69;4377664;32;19982;-91
2022/03/27 09:53:45;;;;;;;;;;;;;;;19.92;60.30;100985.44;4380890;32;20016;-92
2022/03/27 09:56:11;;;;;;;;;;;;;;;19.96;60.30;100990.56;4392093;32;20343;-90
2022/03/27 09:58:37;;;;;;;;;;;;;;;20.08;60.31;100992.56;4419832;32;20020;-90
2022/03/27 10:01:09;;;;;;;;;;;;;;;20.11;60.31;100984.47;4406868;32;20026;-89
2022/03/27 10:03:35;;;;;;;;;;;;;;;20.07;60.31;100983.78;4397723;32;19986;-89
2022/03/27 10:06:04;;;;;;;;;;;;;;;20.28;60.32;100976.50;4398665;32;20004;-89
2022/03/27 10:08:29;;;;;;;;;;;;;;;20.18;60.31;100981.44;4411813;32;20009;-88
2022/03/27 10:10:55;;;;;;;;;;;;;;;20.24;60.32;100980.25;4406114;32;20300;-90
2022/03/27 10:13:20;;;;;;;;;;;;;;;20.47;60.33;100968.50;4392414;32;20037;-90
2022/03/27 10:15:46;;;;;;;;;;;;;;;20.39;60.32;100965.38;4380121;32;19998;-92
2022/03/27 10:18:14;;;;;;;;;;;;;;;20.56;60.34;100972.44;4393114;32;19989;-91
2022/03/27 10:20:40;;;;;;;;;;;;;;;20.61;60.33;100967.75;4379346;32;20457;-90
2022/03/27 10:23:05;;;;;;;;;;;;;;;20.57;60.33;100975.00;4406076;32;20020;-90
2022/03/27 10:25:34;;;;;;;;;;;;;;;20.77;60.35;100965.97;4406036;32;20006;-89
2022/03/27 10:28:01;;;;;;;;;;;;;;;20.82;60.35;100966.59;4391985;32;20342;-90
2022/03/27 10:30:26;;;;;;;;;;;;;;;20.89;60.35;100970.59;4392590;32;20604;-89
2022/03/27 10:32:52;;;;;;;;;;;;;;;21.07;60.36;100966.94;4392217;32;20001;-89
2022/03/27 10:35:36;;;;;;;;;;;;;;;21.22;60.36;100967.00;4391889;32;20028;-90
2022/03/27 10:38:04;;;;;;;;;;;;;;;21.43;60.38;100960.50;4393921;32;20002;-91
2022/03/27 10:40:33;;;;;;;;;;;;;;;21.41;60.37;100967.69;4393803;32;19992;-90
2022/03/27 10:43:11;;;;;;;;;;;;;;;21.46;60.38;100960.31;4402869;32;20342;-89
2022/03/27 10:45:36;;;;;;;;;;;;;;;21.53;60.38;100958.16;4406426;32;19994;-91
2022/03/27 10:48:07;;;;;;;;;;;;;;;21.50;60.38;100959.19;4393592;32;20037;-88
2022/03/27 10:50:35;;;;;;;;;;;;;;;21.61;60.38;100961.22;4413603;32;19986;-90
2022/03/27 10:53:00;;;;;;;;;;;;;;;21.80;60.40;100955.72;4408756;32;19997;-91
2022/03/27 10:55:56;;;;;;;;;;;;;;;21.72;60.39;100959.63;4421669;32;20251;-91
2022/03/27 10:58:25;;;;;;;;;;;;;;;21.99;60.40;100945.69;4403181;32;19990;-91
2022/03/27 11:00:50;;;;;;;;;;;;;;;22.02;60.41;100946.38;4422203;32;20045;-92
2022/03/27 11:03:35;;;;;;;;;;;;;;;21.92;60.41;100947.84;4419707;32;21077;-90
2022/03/27 11:06:01;;;;;;;;;;;;;;;21.55;60.39;100940.41;4380650;32;20009;-90
2022/03/27 11:08:26;;;;;;;;;;;;;;;21.67;60.39;100940.50;4391754;32;20002;-88
2022/03/27 11:10:54;;;;;;;;;;;;;;;21.82;60.40;100943.22;4406785;32;19989;-90
2022/03/27 11:13:22;;;;;;;;;;;;;;;22.02;60.41;100943.72;4393097;32;19983;-88
2022/03/27 11:16:01;;;;;;;;;;;;;;;22.23;60.41;100941.56;4405858;32;19990;-88
2022/03/27 11:18:33;;;;;;;;;;;;;;;22.39;60.42;100937.97;4408252;32;20001;-88
2022/03/27 11:20:58;;;;;;;;;;;;;;;22.18;60.42;100938.34;4420921;32;20029;-88
2022/03/27 11:23:24;;;;;;;;;;;;;;;22.13;60.41;100935.13;4423121;32;20015;-89
2022/03/27 11:25:49;;;;;;;;;;;;;;;21.99;60.40;100933.28;4423076;32;19994;-89
2022/03/27 11:28:18;;;;;;;;;;;;;;;22.26;60.42;100930.78;4422082;32;20331;-89
2022/03/27 11:30:49;;;;;;;;;;;;;;;22.42;60.43;100938.63;4421628;32;19977;-89
2022/03/27 11:33:18;;;;;;;;;;;;;;;22.48;60.44;100934.78;4423135;32;20456;-89
2022/03/27 11:36:04;;;;;;;;;;;;;;;22.28;60.43;100930.69;4408426;32;20047;-90
2022/03/27 11:38:32;;;;;;;;;;;;;;;22.26;60.43;100937.91;4421465;32;19981;-88
2022/03/27 11:40:57;;;;;;;;;;;;;;;21.80;60.40;100926.56;4421734;32;19974;-89
2022/03/27 11:43:26;;;;;;;;;;;;;;;21.52;60.38;100922.88;4411277;32;19998;-87
2022/03/27 11:45:52;;;;;;;;;;;;;;;21.64;60.39;100918.66;4412580;32;20047;-88
2022/03/27 11:48:17;;;;;;;;;;;;;;;21.71;60.40;100914.69;4414291;32;20294;-88
2022/03/27 11:50:42;;;;;;;;;;;;;;;21.85;60.40;100908.56;4420655;32;20012;-90
2022/03/27 11:53:07;;;;;;;;;;;;;;;22.16;60.42;100907.56;4419974;32;20008;-90
2022/03/27 11:55:33;;;;;;;;;;;;;;;22.31;60.43;100904.81;4421340;32;19997;-89
2022/03/27 11:58:00;;;;;;;;;;;;;;;22.40;60.43;100898.09;4406466;32;20035;-90
2022/03/27 12:00:35;;;;;;;;;;;;;;;22.40;60.43;100894.56;4408886;32;19973;-89
2022/03/27 12:03:01;;;;;;;;;;;;;;;22.54;60.43;100894.56;4405856;32;20006;-88
2022/03/27 12:05:36;;;;;;;;;;;;;;;22.36;60.43;100888.63;4392420;32;20633;-90
2022/03/27 12:08:02;;;;;;;;;;;;;;;22.28;60.42;100894.41;4393715;32;20010;-89
2022/03/27 12:10:28;;;;;;;;;;;;;;;22.35;60.43;100889.56;4406190;32;20024;-90
2022/03/27 12:13:08;;;;;;;;;;;;;;;22.40;60.43;100891.94;4393465;32;20004;-89
2022/03/27 12:15:40;;;;;;;;;;;;;;;22.46;60.43;100891.53;4406091;32;20008;-89
2022/03/27 12:18:05;;;;;;;;;;;;;;;22.32;60.43;100887.97;4407105;32;20005;-88
2022/03/27 12:20:44;;;;;;;;;;;;;;;22.35;60.43;100879.81;4405710;32;20038;-89
2022/03/27 12:23:25;;;;;;;;;;;;;;;22.41;60.43;100877.72;4407372;32;20012;-89
2022/03/27 12:25:58;;;;;;;;;;;;;;;22.50;60.43;100883.31;4393177;32;20021;-89
2022/03/27 12:31:20;;;;;;;;;;;;;;;22.22;60.42;100875.34;4406220;32;20437;-89
2022/03/27 12:33:45;;;;;;;;;;;;;;;22.19;60.42;100872.91;4393787;32;19977;-87
2022/03/27 12:36:13;;;;;;;;;;;;;;;22.00;60.41;100882.00;4405570;32;20004;-87
2022/03/27 12:38:39;;;;;;;;;;;;;;;21.99;60.40;100874.94;4405753;32;20017;-88
2022/03/27 12:41:04;;;;;;;;;;;;;;;22.15;60.42;100877.53;4392969;32;20312;-88